sensor_id;sensor_type;location;lat;lon;timestamp;P1;durP1;ratioP1;P2;durP2;ratioP2
9809;SDS011;4944;52.514;13.192;2023-09-08T00:01:02;7.70;;;6.03;;
9809;SDS011;4944;52.514;13.192;2023-09-08T00:03:29;6.63;;;6.00;;
9809;SDS011;4944;52.514;13.192;2023-09-08T00:05:56;6.93;;;6.40;;
9809;SDS011;4944;52.514;13.192;2023-09-08T00:08:22;7.47;;;5.97;;
9809;SDS011;4944;52.514;13.192;2023-09-08T00:10:50;7.22;;;6.63;;
9809;SDS011;4944;52.514;13.192;2023-09-08T00:13:18;7.10;;;6.10;;
9809;SDS011;4944;52.514;13.192;2023-09-08T00:15:45;6.93;;;6.38;;
9809;SDS011;4944;52.514;13.192;2023-09-08T00:18:12;7.00;;;6.30;;
9809;SDS011;4944;52.514;13.192;2023-09-08T00:20:38;7.07;;;6.38;;
9809;SDS011;4944;52.514;13.192;2023-09-08T00:23:06;7.70;;;6.53;;
9809;SDS011;4944;52.514;13.192;2023-09-08T00:25:33;7.25;;;6.47;;
9809;SDS011;4944;52.514;13.192;2023-09-08T00:28:00;7.57;;;6.82;;
9809;SDS011;4944;52.514;13.192;2023-09-08T00:30:29;7.70;;;6.93;;
9809;SDS011;4944;52.514;13.192;2023-09-08T00:32:56;7.40;;;6.70;;
9809;SDS011;4944;52.514;13.192;2023-09-08T00:35:23;8.57;;;6.75;;
9809;SDS011;4944;52.514;13.192;2023-09-08T00:37:50;8.00;;;6.90;;
9809;SDS011;4944;52.514;13.192;2023-09-08T00:40:17;7.65;;;6.95;;
9809;SDS011;4944;52.514;13.192;2023-09-08T00:42:44;7.13;;;6.43;;
9809;SDS011;4944;52.514;13.192;2023-09-08T00:45:12;9.10;;;7.10;;
9809;SDS011;4944;52.514;13.192;2023-09-08T00:47:40;7.70;;;6.72;;
9809;SDS011;4944;52.514;13.192;2023-09-08T00:50:07;7.78;;;7.07;;
9809;SDS011;4944;52.514;13.192;2023-09-08T00:52:34;7.75;;;7.05;;
9809;SDS011;4944;52.514;13.192;2023-09-08T00:55:02;7.28;;;6.68;;
9809;SDS011;4944;52.514;13.192;2023-09-08T00:57:29;7.63;;;6.85;;
9809;SDS011;4944;52.514;13.192;2023-09-08T00:59:56;6.90;;;6.22;;
9809;SDS011;4944;52.514;13.192;2023-09-08T01:02:24;7.68;;;6.90;;
9809;SDS011;4944;52.514;13.192;2023-09-08T01:04:53;7.70;;;7.00;;
9809;SDS011;4944;52.514;13.192;2023-09-08T01:07:19;11.13;;;7.07;;
9809;SDS011;4944;52.514;13.192;2023-09-08T01:09:47;8.38;;;7.68;;
9809;SDS011;4944;52.514;13.192;2023-09-08T01:12:15;8.13;;;7.43;;
9809;SDS011;4944;52.514;13.192;2023-09-08T01:14:42;7.95;;;7.10;;
9809;SDS011;4944;52.514;13.192;2023-09-08T01:17:09;8.52;;;7.80;;
9809;SDS011;4944;52.514;13.192;2023-09-08T01:19:37;8.55;;;7.40;;
9809;SDS011;4944;52.514;13.192;2023-09-08T01:25:40;7.45;;;6.85;;
9809;SDS011;4944;52.514;13.192;2023-09-08T01:28:10;9.55;;;7.38;;
9809;SDS011;4944;52.514;13.192;2023-09-08T01:30:38;8.15;;;7.10;;
9809;SDS011;4944;52.514;13.192;2023-09-08T01:33:05;8.68;;;7.82;;
9809;SDS011;4944;52.514;13.192;2023-09-08T01:35:33;8.25;;;7.57;;
9809;SDS011;4944;52.514;13.192;2023-09-08T01:38:01;7.95;;;7.30;;
9809;SDS011;4944;52.514;13.192;2023-09-08T01:40:28;7.68;;;6.97;;
9809;SDS011;4944;52.514;13.192;2023-09-08T01:42:56;8.48;;;7.68;;
9809;SDS011;4944;52.514;13.192;2023-09-08T01:45:23;8.05;;;7.30;;
9809;SDS011;4944;52.514;13.192;2023-09-08T01:47:50;9.63;;;7.10;;
9809;SDS011;4944;52.514;13.192;2023-09-08T01:50:17;8.65;;;7.78;;
9809;SDS011;4944;52.514;13.192;2023-09-08T01:52:46;7.75;;;7.10;;
9809;SDS011;4944;52.514;13.192;2023-09-08T01:55:13;7.38;;;6.78;;
9809;SDS011;4944;52.514;13.192;2023-09-08T01:57:41;7.97;;;7.18;;
9809;SDS011;4944;52.514;13.192;2023-09-08T02:00:10;8.90;;;7.20;;
9809;SDS011;4944;52.514;13.192;2023-09-08T02:02:37;7.43;;;6.80;;
9809;SDS011;4944;52.514;13.192;2023-09-08T02:05:05;7.68;;;6.90;;
9809;SDS011;4944;52.514;13.192;2023-09-08T02:07:32;8.07;;;7.28;;
9809;SDS011;4944;52.514;13.192;2023-09-08T02:09:59;7.50;;;6.90;;
9809;SDS011;4944;52.514;13.192;2023-09-08T02:12:26;7.32;;;6.72;;
9809;SDS011;4944;52.514;13.192;2023-09-08T02:14:53;7.95;;;7.15;;
9809;SDS011;4944;52.514;13.192;2023-09-08T02:17:22;8.20;;;7.28;;
9809;SDS011;4944;52.514;13.192;2023-09-08T02:19:48;7.05;;;6.40;;
9809;SDS011;4944;52.514;13.192;2023-09-08T02:22:15;7.63;;;6.88;;
9809;SDS011;4944;52.514;13.192;2023-09-08T02:24:42;7.15;;;6.55;;
9809;SDS011;4944;52.514;13.192;2023-09-08T02:27:09;7.43;;;6.72;;
9809;SDS011;4944;52.514;13.192;2023-09-08T02:29:36;7.55;;;6.75;;
9809;SDS011;4944;52.514;13.192;2023-09-08T02:32:03;7.30;;;6.55;;
9809;SDS011;4944;52.514;13.192;2023-09-08T02:34:34;7.70;;;6.55;;
9809;SDS011;4944;52.514;13.192;2023-09-08T02:37:03;7.05;;;6.45;;
9809;SDS011;4944;52.514;13.192;2023-09-08T02:39:31;7.45;;;6.85;;
9809;SDS011;4944;52.514;13.192;2023-09-08T02:41:59;7.75;;;6.47;;
9809;SDS011;4944;52.514;13.192;2023-09-08T02:44:26;7.63;;;6.78;;
9809;SDS011;4944;52.514;13.192;2023-09-08T02:46:52;7.45;;;6.90;;
9809;SDS011;4944;52.514;13.192;2023-09-08T02:49:19;8.57;;;6.50;;
9809;SDS011;4944;52.514;13.192;2023-09-08T02:51:48;8.48;;;6.70;;
9809;SDS011;4944;52.514;13.192;2023-09-08T02:54:15;7.68;;;6.97;;
9809;SDS011;4944;52.514;13.192;2023-09-08T02:56:41;8.18;;;7.47;;
9809;SDS011;4944;52.514;13.192;2023-09-08T02:59:08;8.43;;;7.47;;
9809;SDS011;4944;52.514;13.192;2023-09-08T03:01:35;8.02;;;7.25;;
9809;SDS011;4944;52.514;13.192;2023-09-08T03:04:02;8.02;;;7.30;;
9809;SDS011;4944;52.514;13.192;2023-09-08T03:06:29;7.82;;;6.75;;
9809;SDS011;4944;52.514;13.192;2023-09-08T03:09:01;8.13;;;7.28;;
9809;SDS011;4944;52.514;13.192;2023-09-08T03:11:28;9.27;;;8.38;;
9809;SDS011;4944;52.514;13.192;2023-09-08T03:13:54;8.60;;;7.75;;
9809;SDS011;4944;52.514;13.192;2023-09-08T03:16:21;8.73;;;8.02;;
9809;SDS011;4944;52.514;13.192;2023-09-08T03:18:48;10.55;;;8.38;;
9809;SDS011;4944;52.514;13.192;2023-09-08T03:21:15;8.07;;;7.28;;
9809;SDS011;4944;52.514;13.192;2023-09-08T03:23:43;8.85;;;8.10;;
9809;SDS011;4944;52.514;13.192;2023-09-08T03:26:11;8.13;;;7.43;;
9809;SDS011;4944;52.514;13.192;2023-09-08T03:28:38;9.45;;;8.02;;
9809;SDS011;4944;52.514;13.192;2023-09-08T03:31:08;8.13;;;7.43;;
9809;SDS011;4944;52.514;13.192;2023-09-08T03:33:35;7.72;;;7.20;;
9809;SDS011;4944;52.514;13.192;2023-09-08T03:36:02;7.60;;;7.05;;
9809;SDS011;4944;52.514;13.192;2023-09-08T03:38:29;8.02;;;7.28;;
9809;SDS011;4944;52.514;13.192;2023-09-08T03:40:56;8.25;;;7.38;;
9809;SDS011;4944;52.514;13.192;2023-09-08T03:43:24;7.78;;;7.13;;
9809;SDS011;4944;52.514;13.192;2023-09-08T03:45:51;8.20;;;7.60;;
9809;SDS011;4944;52.514;13.192;2023-09-08T03:48:18;8.20;;;7.60;;
9809;SDS011;4944;52.514;13.192;2023-09-08T03:50:45;8.02;;;7.43;;
9809;SDS011;4944;52.514;13.192;2023-09-08T03:53:12;8.30;;;7.53;;
9809;SDS011;4944;52.514;13.192;2023-09-08T03:55:39;7.78;;;7.03;;
9809;SDS011;4944;52.514;13.192;2023-09-08T03:58:06;8.05;;;7.28;;
9809;SDS011;4944;52.514;13.192;2023-09-08T04:00:34;8.05;;;7.18;;
9809;SDS011;4944;52.514;13.192;2023-09-08T04:03:02;8.40;;;7.60;;
9809;SDS011;4944;52.514;13.192;2023-09-08T04:05:29;8.38;;;7.57;;
9809;SDS011;4944;52.514;13.192;2023-09-08T04:07:56;9.40;;;7.35;;
9809;SDS011;4944;52.514;13.192;2023-09-08T04:10:23;8.07;;;7.38;;
9809;SDS011;4944;52.514;13.192;2023-09-08T04:12:49;9.40;;;7.80;;
9809;SDS011;4944;52.514;13.192;2023-09-08T04:15:16;8.27;;;7.45;;
9809;SDS011;4944;52.514;13.192;2023-09-08T04:17:45;8.20;;;7.40;;
9809;SDS011;4944;52.514;13.192;2023-09-08T04:20:12;8.68;;;7.88;;
9809;SDS011;4944;52.514;13.192;2023-09-08T04:22:40;9.35;;;7.85;;
9809;SDS011;4944;52.514;13.192;2023-09-08T04:25:07;7.80;;;7.10;;
9809;SDS011;4944;52.514;13.192;2023-09-08T04:27:35;8.20;;;7.60;;
9809;SDS011;4944;52.514;13.192;2023-09-08T04:30:02;8.75;;;7.93;;
9809;SDS011;4944;52.514;13.192;2023-09-08T04:32:29;8.00;;;7.13;;
9809;SDS011;4944;52.514;13.192;2023-09-08T04:34:57;8.95;;;8.02;;
9809;SDS011;4944;52.514;13.192;2023-09-08T04:37:24;7.85;;;7.10;;
9809;SDS011;4944;52.514;13.192;2023-09-08T04:39:51;9.40;;;7.97;;
9809;SDS011;4944;52.514;13.192;2023-09-08T04:42:18;10.27;;;7.95;;
9809;SDS011;4944;52.514;13.192;2023-09-08T04:44:45;8.32;;;7.25;;
9809;SDS011;4944;52.514;13.192;2023-09-08T04:47:12;8.60;;;7.80;;
9809;SDS011;4944;52.514;13.192;2023-09-08T04:49:39;8.57;;;7.65;;
9809;SDS011;4944;52.514;13.192;2023-09-08T04:52:07;8.30;;;7.60;;
9809;SDS011;4944;52.514;13.192;2023-09-08T04:54:36;9.38;;;7.95;;
9809;SDS011;4944;52.514;13.192;2023-09-08T04:57:03;8.73;;;7.60;;
9809;SDS011;4944;52.514;13.192;2023-09-08T04:59:30;12.32;;;8.25;;
9809;SDS011;4944;52.514;13.192;2023-09-08T05:01:57;8.52;;;7.65;;
9809;SDS011;4944;52.514;13.192;2023-09-08T05:04:24;9.60;;;8.02;;
9809;SDS011;4944;52.514;13.192;2023-09-08T05:06:51;8.75;;;7.75;;
9809;SDS011;4944;52.514;13.192;2023-09-08T05:09:19;8.43;;;7.65;;
9809;SDS011;4944;52.514;13.192;2023-09-08T05:11:46;7.82;;;7.13;;
9809;SDS011;4944;52.514;13.192;2023-09-08T05:14:13;9.32;;;8.25;;
9809;SDS011;4944;52.514;13.192;2023-09-08T05:16:40;8.27;;;7.57;;
9809;SDS011;4944;52.514;13.192;2023-09-08T05:19:11;9.32;;;7.80;;
9809;SDS011;4944;52.514;13.192;2023-09-08T05:21:39;9.60;;;8.45;;
9809;SDS011;4944;52.514;13.192;2023-09-08T05:24:06;10.25;;;7.75;;
9809;SDS011;4944;52.514;13.192;2023-09-08T05:26:36;8.60;;;7.70;;
9809;SDS011;4944;52.514;13.192;2023-09-08T05:29:04;9.57;;;8.43;;
9809;SDS011;4944;52.514;13.192;2023-09-08T05:31:31;9.18;;;8.27;;
9809;SDS011;4944;52.514;13.192;2023-09-08T05:33:57;8.70;;;8.00;;
9809;SDS011;4944;52.514;13.192;2023-09-08T05:36:24;7.97;;;7.32;;
9809;SDS011;4944;52.514;13.192;2023-09-08T05:38:51;8.13;;;7.63;;
9809;SDS011;4944;52.514;13.192;2023-09-08T05:41:18;8.65;;;7.80;;
9809;SDS011;4944;52.514;13.192;2023-09-08T05:43:46;9.50;;;8.02;;
9809;SDS011;4944;52.514;13.192;2023-09-08T05:46:14;9.10;;;7.93;;
9809;SDS011;4944;52.514;13.192;2023-09-08T05:48:41;10.55;;;8.40;;
9809;SDS011;4944;52.514;13.192;2023-09-08T05:51:08;9.93;;;8.55;;
9809;SDS011;4944;52.514;13.192;2023-09-08T05:53:35;11.87;;;7.70;;
9809;SDS011;4944;52.514;13.192;2023-09-08T05:56:05;10.77;;;8.40;;
9809;SDS011;4944;52.514;13.192;2023-09-08T05:58:32;9.00;;;8.20;;
9809;SDS011;4944;52.514;13.192;2023-09-08T06:01:00;9.50;;;8.65;;
9809;SDS011;4944;52.514;13.192;2023-09-08T06:03:27;13.52;;;8.25;;
9809;SDS011;4944;52.514;13.192;2023-09-08T06:05:55;10.50;;;8.50;;
9809;SDS011;4944;52.514;13.192;2023-09-08T06:08:22;9.98;;;7.68;;
9809;SDS011;4944;52.514;13.192;2023-09-08T06:10:49;8.68;;;7.88;;
9809;SDS011;4944;52.514;13.192;2023-09-08T06:13:16;9.95;;;8.32;;
9809;SDS011;4944;52.514;13.192;2023-09-08T06:15:43;9.00;;;7.65;;
9809;SDS011;4944;52.514;13.192;2023-09-08T06:18:11;9.00;;;8.20;;
9809;SDS011;4944;52.514;13.192;2023-09-08T06:20:43;9.63;;;8.48;;
9809;SDS011;4944;52.514;13.192;2023-09-08T06:23:11;8.73;;;7.63;;
9809;SDS011;4944;52.514;13.192;2023-09-08T06:25:38;9.63;;;7.95;;
9809;SDS011;4944;52.514;13.192;2023-09-08T06:28:05;8.43;;;7.72;;
9809;SDS011;4944;52.514;13.192;2023-09-08T06:30:32;8.67;;;7.47;;
9809;SDS011;4944;52.514;13.192;2023-09-08T06:32:58;13.35;;;8.15;;
9809;SDS011;4944;52.514;13.192;2023-09-08T06:35:27;8.68;;;7.65;;
9809;SDS011;4944;52.514;13.192;2023-09-08T06:37:54;9.07;;;8.13;;
9809;SDS011;4944;52.514;13.192;2023-09-08T06:40:22;9.60;;;8.02;;
9809;SDS011;4944;52.514;13.192;2023-09-08T06:42:49;8.55;;;7.68;;
9809;SDS011;4944;52.514;13.192;2023-09-08T06:45:16;7.80;;;7.05;;
9809;SDS011;4944;52.514;13.192;2023-09-08T06:47:43;9.38;;;7.10;;
9809;SDS011;4944;52.514;13.192;2023-09-08T06:50:10;8.95;;;7.45;;
9809;SDS011;4944;52.514;13.192;2023-09-08T06:52:38;8.77;;;7.80;;
9809;SDS011;4944;52.514;13.192;2023-09-08T06:55:06;7.85;;;7.15;;
9809;SDS011;4944;52.514;13.192;2023-09-08T06:57:34;8.05;;;7.30;;
9809;SDS011;4944;52.514;13.192;2023-09-08T07:00:01;8.13;;;7.35;;
9809;SDS011;4944;52.514;13.192;2023-09-08T07:02:32;8.32;;;7.38;;
9809;SDS011;4944;52.514;13.192;2023-09-08T07:04:59;8.48;;;7.60;;
9809;SDS011;4944;52.514;13.192;2023-09-08T07:07:31;7.88;;;7.13;;
9809;SDS011;4944;52.514;13.192;2023-09-08T07:09:59;8.27;;;7.60;;
9809;SDS011;4944;52.514;13.192;2023-09-08T07:12:26;9.43;;;7.30;;
9809;SDS011;4944;52.514;13.192;2023-09-08T07:14:53;8.38;;;6.97;;
9809;SDS011;4944;52.514;13.192;2023-09-08T07:17:20;8.43;;;7.18;;
9809;SDS011;4944;52.514;13.192;2023-09-08T07:19:48;7.78;;;6.97;;
9809;SDS011;4944;52.514;13.192;2023-09-08T07:22:15;7.38;;;6.72;;
9809;SDS011;4944;52.514;13.192;2023-09-08T07:24:42;8.38;;;6.75;;
9809;SDS011;4944;52.514;13.192;2023-09-08T07:27:10;9.15;;;6.63;;
9809;SDS011;4944;52.514;13.192;2023-09-08T07:29:39;8.00;;;6.60;;
9809;SDS011;4944;52.514;13.192;2023-09-08T07:32:06;7.00;;;6.38;;
9809;SDS011;4944;52.514;13.192;2023-09-08T07:34:33;8.30;;;6.60;;
9809;SDS011;4944;52.514;13.192;2023-09-08T07:37:00;9.10;;;6.43;;
9809;SDS011;4944;52.514;13.192;2023-09-08T07:39:27;7.57;;;6.80;;
9809;SDS011;4944;52.514;13.192;2023-09-08T07:41:55;7.00;;;6.35;;
9809;SDS011;4944;52.514;13.192;2023-09-08T07:44:23;7.72;;;6.68;;
9809;SDS011;4944;52.514;13.192;2023-09-08T07:46:51;7.03;;;6.32;;
9809;SDS011;4944;52.514;13.192;2023-09-08T07:49:18;7.55;;;6.15;;
9809;SDS011;4944;52.514;13.192;2023-09-08T07:51:45;7.25;;;6.55;;
9809;SDS011;4944;52.514;13.192;2023-09-08T07:54:12;6.90;;;5.80;;
9809;SDS011;4944;52.514;13.192;2023-09-08T07:56:39;6.82;;;6.10;;
9809;SDS011;4944;52.514;13.192;2023-09-08T07:59:06;8.70;;;7.72;;
9809;SDS011;4944;52.514;13.192;2023-09-08T08:01:35;8.18;;;7.15;;
9809;SDS011;4944;52.514;13.192;2023-09-08T08:04:02;12.80;;;6.43;;
9809;SDS011;4944;52.514;13.192;2023-09-08T08:06:29;6.80;;;5.80;;
9809;SDS011;4944;52.514;13.192;2023-09-08T08:08:56;6.20;;;5.70;;
9809;SDS011;4944;52.514;13.192;2023-09-08T08:11:23;6.82;;;6.32;;
9809;SDS011;4944;52.514;13.192;2023-09-08T08:13:50;6.47;;;5.57;;
9809;SDS011;4944;52.514;13.192;2023-09-08T08:16:17;6.65;;;5.93;;
9809;SDS011;4944;52.514;13.192;2023-09-08T08:18:47;5.63;;;5.22;;
9809;SDS011;4944;52.514;13.192;2023-09-08T08:21:15;5.90;;;5.43;;
9809;SDS011;4944;52.514;13.192;2023-09-08T08:23:41;8.38;;;6.00;;
9809;SDS011;4944;52.514;13.192;2023-09-08T08:26:08;6.10;;;5.68;;
9809;SDS011;4944;52.514;13.192;2023-09-08T08:28:35;7.03;;;5.43;;
9809;SDS011;4944;52.514;13.192;2023-09-08T08:31:02;5.63;;;5.13;;
9809;SDS011;4944;52.514;13.192;2023-09-08T08:33:29;6.78;;;5.28;;
9809;SDS011;4944;52.514;13.192;2023-09-08T08:35:58;6.88;;;5.50;;
9809;SDS011;4944;52.514;13.192;2023-09-08T08:38:25;6.65;;;5.22;;
9809;SDS011;4944;52.514;13.192;2023-09-08T08:40:52;6.53;;;5.82;;
9809;SDS011;4944;52.514;13.192;2023-09-08T08:43:19;6.57;;;6.00;;
9809;SDS011;4944;52.514;13.192;2023-09-08T08:45:47;7.30;;;5.57;;
9809;SDS011;4944;52.514;13.192;2023-09-08T08:48:15;7.97;;;5.63;;
9809;SDS011;4944;52.514;13.192;2023-09-08T08:50:46;6.13;;;5.35;;
9809;SDS011;4944;52.514;13.192;2023-09-08T08:53:15;11.07;;;5.00;;
9809;SDS011;4944;52.514;13.192;2023-09-08T08:55:43;5.88;;;5.38;;
9809;SDS011;4944;52.514;13.192;2023-09-08T08:58:11;6.63;;;5.85;;
9809;SDS011;4944;52.514;13.192;2023-09-08T09:00:40;5.68;;;4.90;;
9809;SDS011;4944;52.514;13.192;2023-09-08T09:03:08;6.35;;;5.75;;
9809;SDS011;4944;52.514;13.192;2023-09-08T09:05:35;6.78;;;5.45;;
9809;SDS011;4944;52.514;13.192;2023-09-08T09:08:04;5.68;;;5.10;;
9809;SDS011;4944;52.514;13.192;2023-09-08T09:10:33;5.82;;;5.28;;
9809;SDS011;4944;52.514;13.192;2023-09-08T09:13:00;6.43;;;5.70;;
9809;SDS011;4944;52.514;13.192;2023-09-08T09:15:28;5.45;;;4.95;;
9809;SDS011;4944;52.514;13.192;2023-09-08T09:18:02;8.00;;;4.80;;
9809;SDS011;4944;52.514;13.192;2023-09-08T09:20:30;8.25;;;5.57;;
9809;SDS011;4944;52.514;13.192;2023-09-08T09:22:58;7.45;;;5.43;;
9809;SDS011;4944;52.514;13.192;2023-09-08T09:25:25;6.68;;;5.75;;
9809;SDS011;4944;52.514;13.192;2023-09-08T09:27:55;6.28;;;5.68;;
9809;SDS011;4944;52.514;13.192;2023-09-08T09:30:24;6.53;;;5.03;;
9809;SDS011;4944;52.514;13.192;2023-09-08T09:32:58;5.97;;;5.47;;
9809;SDS011;4944;52.514;13.192;2023-09-08T09:35:39;5.82;;;5.38;;
9809;SDS011;4944;52.514;13.192;2023-09-08T09:38:07;5.97;;;5.57;;
9809;SDS011;4944;52.514;13.192;2023-09-08T09:40:34;6.32;;;5.05;;
9809;SDS011;4944;52.514;13.192;2023-09-08T09:43:03;8.20;;;5.30;;
9809;SDS011;4944;52.514;13.192;2023-09-08T09:45:31;7.68;;;5.25;;
9809;SDS011;4944;52.514;13.192;2023-09-08T09:47:58;5.65;;;5.15;;
9809;SDS011;4944;52.514;13.192;2023-09-08T09:50:28;7.97;;;6.07;;
9809;SDS011;4944;52.514;13.192;2023-09-08T09:52:57;7.35;;;5.20;;
9809;SDS011;4944;52.514;13.192;2023-09-08T09:55:24;7.63;;;5.57;;
9809;SDS011;4944;52.514;13.192;2023-09-08T09:57:53;6.38;;;5.00;;
9809;SDS011;4944;52.514;13.192;2023-09-08T10:00:27;6.30;;;5.65;;
9809;SDS011;4944;52.514;13.192;2023-09-08T10:02:54;10.20;;;6.07;;
9809;SDS011;4944;52.514;13.192;2023-09-08T10:05:22;5.35;;;4.93;;
9809;SDS011;4944;52.514;13.192;2023-09-08T10:07:50;5.82;;;5.07;;
9809;SDS011;4944;52.514;13.192;2023-09-08T10:10:18;5.97;;;5.30;;
9809;SDS011;4944;52.514;13.192;2023-09-08T10:12:46;8.48;;;5.57;;
9809;SDS011;4944;52.514;13.192;2023-09-08T10:15:19;5.80;;;5.30;;
9809;SDS011;4944;52.514;13.192;2023-09-08T10:17:51;5.95;;;5.32;;
9809;SDS011;4944;52.514;13.192;2023-09-08T10:20:20;4.82;;;4.43;;
9809;SDS011;4944;52.514;13.192;2023-09-08T10:22:50;6.82;;;5.40;;
9809;SDS011;4944;52.514;13.192;2023-09-08T10:25:24;6.18;;;5.55;;
9809;SDS011;4944;52.514;13.192;2023-09-08T10:27:54;8.63;;;5.00;;
9809;SDS011;4944;52.514;13.192;2023-09-08T10:30:22;6.60;;;5.03;;
9809;SDS011;4944;52.514;13.192;2023-09-08T10:32:51;6.20;;;5.60;;
9809;SDS011;4944;52.514;13.192;2023-09-08T10:35:18;7.35;;;4.90;;
9809;SDS011;4944;52.514;13.192;2023-09-08T10:37:45;6.18;;;5.70;;
9809;SDS011;4944;52.514;13.192;2023-09-08T10:40:21;6.75;;;5.88;;
9809;SDS011;4944;52.514;13.192;2023-09-08T10:42:58;5.93;;;5.15;;
9809;SDS011;4944;52.514;13.192;2023-09-08T10:45:32;5.90;;;4.68;;
9809;SDS011;4944;52.514;13.192;2023-09-08T10:48:01;7.28;;;5.30;;
9809;SDS011;4944;52.514;13.192;2023-09-08T10:50:32;6.35;;;5.07;;
9809;SDS011;4944;52.514;13.192;2023-09-08T10:53:04;5.15;;;4.68;;
9809;SDS011;4944;52.514;13.192;2023-09-08T10:55:35;5.40;;;5.00;;
9809;SDS011;4944;52.514;13.192;2023-09-08T10:58:04;5.80;;;4.88;;
9809;SDS011;4944;52.514;13.192;2023-09-08T11:00:42;5.65;;;5.18;;
9809;SDS011;4944;52.514;13.192;2023-09-08T11:03:12;5.78;;;5.28;;
9809;SDS011;4944;52.514;13.192;2023-09-08T11:05:41;8.15;;;4.40;;
9809;SDS011;4944;52.514;13.192;2023-09-08T11:08:09;5.60;;;5.18;;
9809;SDS011;4944;52.514;13.192;2023-09-08T11:10:36;4.68;;;4.38;;
9809;SDS011;4944;52.514;13.192;2023-09-08T11:13:06;5.53;;;5.03;;
9809;SDS011;4944;52.514;13.192;2023-09-08T11:15:33;5.38;;;4.88;;
9809;SDS011;4944;52.514;13.192;2023-09-08T11:18:04;8.02;;;4.70;;
9809;SDS011;4944;52.514;13.192;2023-09-08T11:20:34;5.15;;;4.60;;
9809;SDS011;4944;52.514;13.192;2023-09-08T11:23:01;5.60;;;4.88;;
9809;SDS011;4944;52.514;13.192;2023-09-08T11:25:31;4.50;;;4.10;;
9809;SDS011;4944;52.514;13.192;2023-09-08T11:27:59;4.80;;;4.40;;
9809;SDS011;4944;52.514;13.192;2023-09-08T11:30:29;5.32;;;4.40;;
9809;SDS011;4944;52.514;13.192;2023-09-08T11:32:56;4.78;;;4.38;;
9809;SDS011;4944;52.514;13.192;2023-09-08T11:35:23;7.25;;;4.22;;
9809;SDS011;4944;52.514;13.192;2023-09-08T11:37:58;7.72;;;4.18;;
9809;SDS011;4944;52.514;13.192;2023-09-08T11:40:27;4.20;;;3.85;;
9809;SDS011;4944;52.514;13.192;2023-09-08T11:42:54;4.57;;;4.18;;
9809;SDS011;4944;52.514;13.192;2023-09-08T11:45:21;4.70;;;4.22;;
9809;SDS011;4944;52.514;13.192;2023-09-08T11:47:48;5.70;;;5.13;;
9809;SDS011;4944;52.514;13.192;2023-09-08T11:50:16;6.88;;;6.22;;
9809;SDS011;4944;52.514;13.192;2023-09-08T11:52:45;4.80;;;4.40;;
9809;SDS011;4944;52.514;13.192;2023-09-08T11:55:14;4.28;;;4.03;;
9809;SDS011;4944;52.514;13.192;2023-09-08T11:57:43;4.95;;;4.55;;
9809;SDS011;4944;52.514;13.192;2023-09-08T12:00:12;4.63;;;4.22;;
9809;SDS011;4944;52.514;13.192;2023-09-08T12:02:43;4.82;;;4.40;;
9809;SDS011;4944;52.514;13.192;2023-09-08T12:05:13;5.55;;;4.28;;
9809;SDS011;4944;52.514;13.192;2023-09-08T12:07:46;5.05;;;3.85;;
9809;SDS011;4944;52.514;13.192;2023-09-08T12:10:15;4.63;;;4.22;;
9809;SDS011;4944;52.514;13.192;2023-09-08T12:12:43;4.78;;;4.47;;
9809;SDS011;4944;52.514;13.192;2023-09-08T12:15:11;6.13;;;4.10;;
9809;SDS011;4944;52.514;13.192;2023-09-08T12:17:47;4.97;;;4.60;;
9809;SDS011;4944;52.514;13.192;2023-09-08T12:20:15;7.32;;;4.43;;
9809;SDS011;4944;52.514;13.192;2023-09-08T12:22:47;6.57;;;4.60;;
9809;SDS011;4944;52.514;13.192;2023-09-08T12:25:16;4.78;;;4.47;;
9809;SDS011;4944;52.514;13.192;2023-09-08T12:27:44;4.57;;;4.20;;
9809;SDS011;4944;52.514;13.192;2023-09-08T12:30:16;5.10;;;4.70;;
9809;SDS011;4944;52.514;13.192;2023-09-08T12:32:45;4.93;;;4.53;;
9809;SDS011;4944;52.514;13.192;2023-09-08T12:35:18;4.70;;;4.30;;
9809;SDS011;4944;52.514;13.192;2023-09-08T12:37:47;6.03;;;4.80;;
9809;SDS011;4944;52.514;13.192;2023-09-08T12:40:19;4.72;;;4.40;;
9809;SDS011;4944;52.514;13.192;2023-09-08T12:42:46;4.97;;;4.32;;
9809;SDS011;4944;52.514;13.192;2023-09-08T12:45:13;4.50;;;4.18;;
9809;SDS011;4944;52.514;13.192;2023-09-08T12:47:40;4.75;;;4.13;;
9809;SDS011;4944;52.514;13.192;2023-09-08T12:50:07;5.75;;;4.60;;
9809;SDS011;4944;52.514;13.192;2023-09-08T12:52:35;4.47;;;4.18;;
9809;SDS011;4944;52.514;13.192;2023-09-08T12:55:01;4.82;;;4.53;;
9809;SDS011;4944;52.514;13.192;2023-09-08T12:57:30;6.30;;;4.90;;
9809;SDS011;4944;52.514;13.192;2023-09-08T12:59:57;7.78;;;4.65;;
9809;SDS011;4944;52.514;13.192;2023-09-08T13:02:24;5.50;;;5.00;;
9809;SDS011;4944;52.514;13.192;2023-09-08T13:04:52;7.47;;;4.88;;
9809;SDS011;4944;52.514;13.192;2023-09-08T13:07:20;5.82;;;4.90;;
9809;SDS011;4944;52.514;13.192;2023-09-08T13:09:47;11.88;;;5.70;;
9809;SDS011;4944;52.514;13.192;2023-09-08T13:12:15;5.53;;;5.03;;
9809;SDS011;4944;52.514;13.192;2023-09-08T13:14:46;5.90;;;5.30;;
9809;SDS011;4944;52.514;13.192;2023-09-08T13:17:14;4.80;;;4.50;;
9809;SDS011;4944;52.514;13.192;2023-09-08T13:19:41;4.95;;;4.50;;
9809;SDS011;4944;52.514;13.192;2023-09-08T13:22:08;8.95;;;4.68;;
9809;SDS011;4944;52.514;13.192;2023-09-08T13:24:35;7.60;;;6.97;;
9809;SDS011;4944;52.514;13.192;2023-09-08T13:27:03;6.90;;;6.20;;
9809;SDS011;4944;52.514;13.192;2023-09-08T13:29:30;4.72;;;4.43;;
9809;SDS011;4944;52.514;13.192;2023-09-08T13:31:58;5.45;;;4.70;;
9809;SDS011;4944;52.514;13.192;2023-09-08T13:34:25;5.40;;;5.00;;
9809;SDS011;4944;52.514;13.192;2023-09-08T13:36:52;8.15;;;5.15;;
9809;SDS011;4944;52.514;13.192;2023-09-08T13:39:19;5.32;;;4.93;;
9809;SDS011;4944;52.514;13.192;2023-09-08T13:41:50;5.07;;;4.68;;
9809;SDS011;4944;52.514;13.192;2023-09-08T13:44:17;6.53;;;5.05;;
9809;SDS011;4944;52.514;13.192;2023-09-08T13:46:45;5.22;;;4.90;;
9809;SDS011;4944;52.514;13.192;2023-09-08T13:49:14;6.53;;;4.90;;
9809;SDS011;4944;52.514;13.192;2023-09-08T13:51:41;8.18;;;4.50;;
9809;SDS011;4944;52.514;13.192;2023-09-08T13:54:09;4.97;;;4.53;;
9809;SDS011;4944;52.514;13.192;2023-09-08T13:56:37;5.07;;;4.57;;
9809;SDS011;4944;52.514;13.192;2023-09-08T13:59:05;7.00;;;4.72;;
9809;SDS011;4944;52.514;13.192;2023-09-08T14:01:32;4.93;;;4.50;;
9809;SDS011;4944;52.514;13.192;2023-09-08T14:04:00;5.10;;;4.70;;
9809;SDS011;4944;52.514;13.192;2023-09-08T14:06:28;4.75;;;4.45;;
9809;SDS011;4944;52.514;13.192;2023-09-08T14:08:55;6.15;;;4.10;;
9809;SDS011;4944;52.514;13.192;2023-09-08T14:11:22;4.93;;;4.45;;
9809;SDS011;4944;52.514;13.192;2023-09-08T14:13:49;6.03;;;5.07;;
9809;SDS011;4944;52.514;13.192;2023-09-08T14:16:17;5.00;;;4.70;;
9809;SDS011;4944;52.514;13.192;2023-09-08T14:18:44;4.90;;;4.50;;
9809;SDS011;4944;52.514;13.192;2023-09-08T14:21:11;6.63;;;4.72;;
9809;SDS011;4944;52.514;13.192;2023-09-08T14:23:39;5.28;;;4.70;;
9809;SDS011;4944;52.514;13.192;2023-09-08T14:26:06;5.47;;;4.38;;
9809;SDS011;4944;52.514;13.192;2023-09-08T14:28:33;9.50;;;4.68;;
9809;SDS011;4944;52.514;13.192;2023-09-08T14:31:01;4.72;;;4.35;;
9809;SDS011;4944;52.514;13.192;2023-09-08T14:33:28;5.18;;;4.65;;
9809;SDS011;4944;52.514;13.192;2023-09-08T14:35:55;4.85;;;4.32;;
9809;SDS011;4944;52.514;13.192;2023-09-08T14:38:23;6.60;;;4.43;;
9809;SDS011;4944;52.514;13.192;2023-09-08T14:40:55;5.03;;;4.63;;
9809;SDS011;4944;52.514;13.192;2023-09-08T14:43:22;5.80;;;4.60;;
9809;SDS011;4944;52.514;13.192;2023-09-08T14:45:50;5.63;;;5.03;;
9809;SDS011;4944;52.514;13.192;2023-09-08T14:48:17;5.88;;;4.55;;
9809;SDS011;4944;52.514;13.192;2023-09-08T14:50:44;4.95;;;4.55;;
9809;SDS011;4944;52.514;13.192;2023-09-08T14:53:11;8.38;;;5.20;;
9809;SDS011;4944;52.514;13.192;2023-09-08T14:55:38;5.00;;;4.50;;
9809;SDS011;4944;52.514;13.192;2023-09-08T14:58:06;7.68;;;4.63;;
9809;SDS011;4944;52.514;13.192;2023-09-08T15:00:33;43.00;;;7.30;;
9809;SDS011;4944;52.514;13.192;2023-09-08T15:03:00;9.23;;;4.93;;
9809;SDS011;4944;52.514;13.192;2023-09-08T15:05:29;4.90;;;4.50;;
9809;SDS011;4944;52.514;13.192;2023-09-08T15:07:56;5.13;;;4.68;;